Hartmans Corners, NY

4:34 AM EDT on April 28, 2017 (GMT -0400)
MAPBN6 | | Change Station

Elev 344 ft 42.70 °N, 73.93 °W | Updated 44 minutes ago

Overcast
Overcast
61.0 °F
Feels Like 61.0 °F
N
6.0
Wind Variable Wind from South
Gusts 12.0 mph

Today
High -- | Low -- °F
--% Chance of Precip.
Yesterday
High -- | Low -- °F
Precip. -- in
Pressure 29.87 in
Visibility 10.0 miles
Clouds Overcast 1100 ft
Dew Point 58.0 °F
Humidity 91%
Rainfall in
Snow Depth Not available.
5:54 AM 7:53 PM
Waxing Crescent, 5% visible
METAR KALB 280751Z 18006KT 10SM OVC011 17/14 A2987 RMK AO2 RAB12E44 SLP114 P0000 T01670139
Pressure 29.87 in
Visibility 10.0 miles
Clouds Overcast 1100 ft
Dew Point 58.0 °F
Humidity 91%
Rainfall in
Snow Depth Not available.
5:54 AM 7:53 PM
Waxing Crescent, 5% visible
METAR KALB 280751Z 18006KT 10SM OVC011 17/14 A2987 RMK AO2 RAB12E44 SLP114 P0000 T01670139

Get Severe Weather Alerts

Thanks for signing up!

Be on the lookout for a verification email in your inbox.

You'll start receiving the daily forecast at 8 AM.

×

10-Day Weather Forecast

Almanac

Astronomy

Apr. 28, 2017 Rise Set
Actual Time
Civil Twilight
Nautical Twilight
Astronomical Twilight
Moon
Length of Visible Light
Length of Day
Tomorrow will be .
, % of the Moon is Illuminated

Today's Extremes

State Highs State Lows

Community

WunderPhotos

WunderBlog® & News

Nearby

Air Quality

  Air Quality AQ Index Pollutant
Not available.

Snow Depth

Station Depth Elevation

Earthquake Activity

City Distance Mag. Time & Date
Minimum magnitude displayed is 2.5.

Coastal Water Temperatures

Place Temperature

Stations

Nearby Weather Stations

Station Location Temp. Windchill Dew Point Humidity Wind Precip. Elev Updated Type
                   

Watches & Warnings

There are currently no watches in effect.